Time,TemperatureF,DewpointF,PressureIn,WindDirection,WindDirectionDegrees,WindSpeedMPH,WindSpeedGustMPH,Humidity,HourlyPrecipIn,Conditions,Clouds,dailyrainin,SoftwareType,DateUTC
2013-09-05 00:10:00,63.3,61.8,29.72,SSE,157,0.0,-999.0,95,-99.99,,,0.00,Acu-Link.com,2013-09-05 07:10:00,
2013-09-05 00:25:00,63.3,61.8,29.71,SSW,202,2.7,-999.0,95,-99.99,,,0.00,Acu-Link.com,2013-09-05 07:25:00,
2013-09-05 00:40:00,63.1,61.6,29.72,SSW,202,2.7,-999.0,95,-99.99,,,0.00,Acu-Link.com,2013-09-05 07:40:00,
2013-09-05 00:55:00,62.8,61.6,29.71,East,90,0.0,-999.0,96,-99.99,,,0.00,Acu-Link.com,2013-09-05 07:55:00,
2013-09-05 01:11:00,62.8,61.6,29.71,ESE,112,0.0,-999.0,96,-99.99,,,0.00,Acu-Link.com,2013-09-05 08:11:00,
2013-09-05 01:26:00,62.8,61.9,29.70,WSW,247,0.0,-999.0,97,-99.99,,,0.00,Acu-Link.com,2013-09-05 08:26:00,
2013-09-05 01:41:00,63.3,62.1,29.70,NNE,22,1.7,-999.0,96,-99.99,,,0.00,Acu-Link.com,2013-09-05 08:41:00,
2013-09-05 01:56:00,63.1,62.2,29.69,SSW,202,0.0,-999.0,97,-99.99,,,0.00,Acu-Link.com,2013-09-05 08:56:00,
2013-09-05 02:12:00,62.2,61.3,29.71,East,90,0.0,-999.0,97,-99.99,,,0.00,Acu-Link.com,2013-09-05 09:12:00,
2013-09-05 02:27:00,62.4,61.8,29.71,NE,45,0.0,-999.0,98,-99.99,,,0.00,Acu-Link.com,2013-09-05 09:27:00,
2013-09-05 02:42:00,62.8,62.5,29.68,WNW,292,2.7,-999.0,99,-99.99,,,0.00,Acu-Link.com,2013-09-05 09:42:00,
2013-09-05 02:57:00,62.8,62.5,29.68,NNW,337,0.0,-999.0,99,-99.99,,,0.00,Acu-Link.com,2013-09-05 09:57:00,
2013-09-05 03:12:00,62.4,62.1,29.68,SSW,202,0.0,-999.0,99,-99.99,,,0.00,Acu-Link.com,2013-09-05 10:12:00,
2013-09-05 03:27:00,62.1,61.8,29.70,East,90,0.0,-999.0,99,-99.99,,,0.00,Acu-Link.com,2013-09-05 10:27:00,
2013-09-05 03:42:00,62.1,61.8,29.70,South,180,0.0,-999.0,99,-99.99,,,0.00,Acu-Link.com,2013-09-05 10:42:00,
2013-09-05 03:57:00,62.6,62.3,29.71,East,90,1.7,-999.0,99,-99.99,,,0.00,Acu-Link.com,2013-09-05 10:57:00,
2013-09-05 04:12:00,62.2,61.9,29.71,ESE,112,0.0,-999.0,99,-99.99,,,0.00,Acu-Link.com,2013-09-05 11:12:00,
2013-09-05 04:27:00,61.9,61.6,29.69,ESE,112,1.7,-999.0,99,-99.99,,,0.00,Acu-Link.com,2013-09-05 11:27:00,
2013-09-05 04:43:00,61.0,60.7,29.70,NW,315,3.2,-999.0,99,-99.99,,,0.00,Acu-Link.com,2013-09-05 11:43:00,
2013-09-05 04:58:00,60.4,60.1,29.69,SW,225,3.2,-999.0,99,-99.99,,,0.00,Acu-Link.com,2013-09-05 11:58:00,
2013-09-05 05:13:00,60.6,60.3,29.70,WNW,292,2.2,-999.0,99,-99.99,,,0.00,Acu-Link.com,2013-09-05 12:13:00,
2013-09-05 05:28:00,60.8,60.5,29.71,West,270,2.2,-999.0,99,-99.99,,,0.00,Acu-Link.com,2013-09-05 12:28:00,
2013-09-05 05:43:00,60.4,60.1,29.70,NNE,22,2.7,-999.0,99,-99.99,,,0.00,Acu-Link.com,2013-09-05 12:43:00,
2013-09-05 05:58:00,60.8,60.5,29.71,NE,45,0.0,-999.0,99,-99.99,,,0.00,Acu-Link.com,2013-09-05 12:58:00,
2013-09-05 06:13:00,61.2,60.9,29.72,SSW,202,0.0,-999.0,99,-99.99,,,0.00,Acu-Link.com,2013-09-05 13:13:00,
2013-09-05 06:28:00,61.7,61.4,29.72,SSW,202,1.1,-999.0,99,-99.99,,,0.00,Acu-Link.com,2013-09-05 13:28:00,
2013-09-05 06:43:00,62.1,61.8,29.71,NNE,22,2.7,-999.0,99,-99.99,,,0.00,Acu-Link.com,2013-09-05 13:43:00,
2013-09-05 06:59:00,61.9,61.6,29.70,South,180,0.0,-999.0,99,-99.99,,,0.01,Acu-Link.com,2013-09-05 13:59:00,
2013-09-05 07:14:00,62.2,61.6,29.71,East,90,0.0,-999.0,98,-99.99,,,0.01,Acu-Link.com,2013-09-05 14:14:00,
2013-09-05 07:29:00,61.9,61.6,29.73,NE,45,0.0,-999.0,99,-99.99,,,0.03,Acu-Link.com,2013-09-05 14:29:00,
2013-09-05 07:44:00,61.9,61.6,29.71,NE,45,3.7,-999.0,99,-99.99,,,0.04,Acu-Link.com,2013-09-05 14:44:00,
2013-09-05 07:59:00,61.7,61.4,29.69,NNW,337,4.7,-999.0,99,-99.99,,,0.08,Acu-Link.com,2013-09-05 14:59:00,
2013-09-05 08:14:00,61.5,61.2,29.70,SSW,202,6.8,-999.0,99,-99.99,,,0.09,Acu-Link.com,2013-09-05 15:14:00,
2013-09-05 08:29:00,61.3,61.0,29.71,NE,45,4.7,-999.0,99,-99.99,,,0.09,Acu-Link.com,2013-09-05 15:29:00,
2013-09-05 08:44:00,61.3,61.0,29.71,East,90,3.7,-999.0,99,-99.99,,,0.12,Acu-Link.com,2013-09-05 15:44:00,
2013-09-05 08:59:00,61.5,61.2,29.70,NNE,22,5.3,-999.0,99,-99.99,,,0.12,Acu-Link.com,2013-09-05 15:59:00,
2013-09-05 09:15:00,62.2,61.9,29.71,SE,135,0.0,-999.0,99,-99.99,,,0.13,Acu-Link.com,2013-09-05 16:15:00,
2013-09-05 09:30:00,61.7,61.1,29.71,NNE,22,2.7,-999.0,98,-99.99,,,0.13,Acu-Link.com,2013-09-05 16:30:00,
2013-09-05 09:45:00,62.1,61.2,29.70,West,270,3.7,-999.0,97,-99.99,,,0.13,Acu-Link.com,2013-09-05 16:45:00,
2013-09-05 10:00:00,62.4,61.8,29.71,WNW,292,3.2,-999.0,98,-99.99,,,0.13,Acu-Link.com,2013-09-05 17:00:00,
2013-09-05 10:15:00,63.1,62.2,29.71,NNE,22,2.7,-999.0,97,-99.99,,,0.13,Acu-Link.com,2013-09-05 17:15:00,
2013-09-05 10:30:00,63.3,62.1,29.71,WNW,292,3.7,-999.0,96,-99.99,,,0.13,Acu-Link.com,2013-09-05 17:30:00,
2013-09-05 10:45:00,63.7,62.2,29.71,West,270,0.0,-999.0,95,-99.99,,,0.13,Acu-Link.com,2013-09-05 17:45:00,
2013-09-05 11:00:00,64.2,62.4,29.71,SW,225,3.2,-999.0,94,-99.99,,,0.13,Acu-Link.com,2013-09-05 18:00:00,
2013-09-05 11:15:00,64.2,62.1,29.71,WNW,292,2.2,-999.0,93,-99.99,,,0.13,Acu-Link.com,2013-09-05 18:15:00,
2013-09-05 11:31:00,64.6,62.5,29.71,West,270,3.7,-999.0,93,-99.99,,,0.13,Acu-Link.com,2013-09-05 18:31:00,
2013-09-05 11:46:00,64.2,62.7,29.71,West,270,1.7,-999.0,95,-99.99,,,0.13,Acu-Link.com,2013-09-05 18:46:00,
2013-09-05 12:01:00,64.0,62.5,29.71,South,180,4.7,-999.0,95,-99.99,,,0.13,Acu-Link.com,2013-09-05 19:01:00,
2013-09-05 12:16:00,63.9,62.4,29.70,SW,225,5.8,-999.0,95,-99.99,,,0.13,Acu-Link.com,2013-09-05 19:16:00,
2013-09-05 12:31:00,63.9,62.4,29.70,NNE,22,5.3,-999.0,95,-99.99,,,0.13,Acu-Link.com,2013-09-05 19:31:00,
2013-09-05 12:46:00,63.9,61.8,29.70,NNE,22,5.8,-999.0,93,-99.99,,,0.13,Acu-Link.com,2013-09-05 19:46:00,
2013-09-05 13:01:00,64.2,62.4,29.69,NNW,337,4.7,-999.0,94,-99.99,,,0.13,Acu-Link.com,2013-09-05 20:01:00,
2013-09-05 13:16:00,64.8,62.4,29.69,SW,225,6.8,-999.0,92,-99.99,,,0.13,Acu-Link.com,2013-09-05 20:16:00,
2013-09-05 13:33:00,64.0,61.6,29.69,WNW,292,7.3,-999.0,92,-99.99,,,0.13,Acu-Link.com,2013-09-05 20:33:00,
2013-09-05 13:48:00,64.8,62.1,29.69,WNW,292,8.3,-999.0,91,-99.99,,,0.13,Acu-Link.com,2013-09-05 20:48:00,
2013-09-05 14:03:00,64.9,61.9,29.69,NW,315,7.3,-999.0,90,-99.99,,,0.13,Acu-Link.com,2013-09-05 21:03:00,
2013-09-05 14:18:00,65.3,61.7,29.68,SW,225,4.7,-999.0,88,-99.99,,,0.13,Acu-Link.com,2013-09-05 21:18:00,
2013-09-05 14:33:00,66.0,62.0,29.67,West,270,8.3,-999.0,87,-99.99,,,0.13,Acu-Link.com,2013-09-05 21:33:00,
2013-09-05 14:48:00,65.8,61.8,29.67,NW,315,7.8,-999.0,87,-99.99,,,0.13,Acu-Link.com,2013-09-05 21:48:00,
2013-09-05 15:03:00,66.0,61.0,29.66,WNW,292,6.3,-999.0,84,-99.99,,,0.13,Acu-Link.com,2013-09-05 22:03:00,
2013-09-05 15:18:00,65.8,61.2,29.66,NNW,337,11.9,-999.0,85,-99.99,,,0.13,Acu-Link.com,2013-09-05 22:18:00,
2013-09-05 15:34:00,65.8,61.5,29.66,NW,315,9.4,-999.0,86,-99.99,,,0.13,Acu-Link.com,2013-09-05 22:34:00,
2013-09-05 15:49:00,66.4,61.7,29.65,West,270,6.8,-999.0,85,-99.99,,,0.13,Acu-Link.com,2013-09-05 22:49:00,
2013-09-05 16:04:00,66.4,62.1,29.65,West,270,6.8,-999.0,86,-99.99,,,0.13,Acu-Link.com,2013-09-05 23:04:00,
2013-09-05 16:19:00,65.8,61.8,29.64,NNW,337,7.8,-999.0,87,-99.99,,,0.13,Acu-Link.com,2013-09-05 23:19:00,
2013-09-05 16:34:00,65.7,62.0,29.64,NNE,22,10.4,-999.0,88,-99.99,,,0.13,Acu-Link.com,2013-09-05 23:34:00,
2013-09-05 16:49:00,65.8,61.5,29.64,NE,45,4.7,-999.0,86,-99.99,,,0.13,Acu-Link.com,2013-09-05 23:49:00,
2013-09-05 17:05:00,66.0,62.0,29.64,NNE,22,4.7,-999.0,87,-99.99,,,0.13,Acu-Link.com,2013-09-06 00:05:00,
2013-09-05 17:20:00,65.7,61.7,29.65,West,270,5.8,-999.0,87,-99.99,,,0.13,Acu-Link.com,2013-09-06 00:20:00,
2013-09-05 17:35:00,65.5,61.5,29.64,NW,315,5.3,-999.0,87,-99.99,,,0.13,Acu-Link.com,2013-09-06 00:35:00,
2013-09-05 17:50:00,65.1,60.8,29.64,NNE,22,6.8,-999.0,86,-99.99,,,0.13,Acu-Link.com,2013-09-06 00:50:00,
2013-09-05 18:05:00,65.8,60.8,29.62,NE,45,4.7,-999.0,84,-99.99,,,0.13,Acu-Link.com,2013-09-06 01:05:00,
2013-09-05 18:20:00,66.2,60.5,29.63,North,0,5.3,-999.0,82,-99.99,,,0.13,Acu-Link.com,2013-09-06 01:20:00,
2013-09-05 18:35:00,66.2,60.5,29.61,NW,315,5.8,-999.0,82,-99.99,,,0.13,Acu-Link.com,2013-09-06 01:35:00,
2013-09-05 18:50:00,66.4,60.0,29.61,NW,315,2.7,-999.0,80,-99.99,,,0.13,Acu-Link.com,2013-09-06 01:50:00,
2013-09-05 19:05:00,65.8,60.8,29.62,SSW,202,3.2,-999.0,84,-99.99,,,0.13,Acu-Link.com,2013-09-06 02:05:00,
2013-09-05 19:21:00,65.1,60.5,29.63,West,270,2.7,-999.0,85,-99.99,,,0.13,Acu-Link.com,2013-09-06 02:21:00,
2013-09-05 19:36:00,64.9,60.6,29.62,SE,135,0.0,-999.0,86,-99.99,,,0.13,Acu-Link.com,2013-09-06 02:36:00,
2013-09-05 19:51:00,64.8,60.5,29.61,SW,225,0.0,-999.0,86,-99.99,,,0.13,Acu-Link.com,2013-09-06 02:51:00,
2013-09-05 20:06:00,64.6,60.3,29.60,West,270,0.0,-999.0,86,-99.99,,,0.13,Acu-Link.com,2013-09-06 03:06:00,
2013-09-05 20:21:00,64.9,59.9,29.61,WNW,292,2.7,-999.0,84,-99.99,,,0.13,Acu-Link.com,2013-09-06 03:21:00,
2013-09-05 20:36:00,64.9,60.3,29.61,WNW,292,2.7,-999.0,85,-99.99,,,0.13,Acu-Link.com,2013-09-06 03:36:00,
2013-09-05 20:51:00,65.1,60.5,29.61,SW,225,3.2,-999.0,85,-99.99,,,0.13,Acu-Link.com,2013-09-06 03:51:00,
2013-09-05 21:06:00,64.9,60.9,29.61,SW,225,3.2,-999.0,87,-99.99,,,0.13,Acu-Link.com,2013-09-06 04:06:00,
2013-09-05 21:21:00,64.4,60.4,29.61,WSW,247,2.2,-999.0,87,-99.99,,,0.13,Acu-Link.com,2013-09-06 04:21:00,
2013-09-05 21:37:00,64.0,60.7,29.61,ESE,112,1.7,-999.0,89,-99.99,,,0.13,Acu-Link.com,2013-09-06 04:37:00,
2013-09-05 21:52:00,63.3,60.0,29.63,SSW,202,3.2,-999.0,89,-99.99,,,0.13,Acu-Link.com,2013-09-06 04:52:00,
2013-09-05 22:07:00,63.3,60.0,29.62,SW,225,0.0,-999.0,89,-99.99,,,0.13,Acu-Link.com,2013-09-06 05:07:00,
2013-09-05 22:22:00,63.5,60.8,29.64,ESE,112,1.7,-999.0,91,-99.99,,,0.13,Acu-Link.com,2013-09-06 05:22:00,
2013-09-05 22:37:00,63.3,61.5,29.63,South,180,0.0,-999.0,94,-99.99,,,0.14,Acu-Link.com,2013-09-06 05:37:00,
2013-09-05 22:52:00,63.5,62.3,29.62,ESE,112,1.1,-999.0,96,-99.99,,,0.15,Acu-Link.com,2013-09-06 05:52:00,
2013-09-05 23:07:00,63.3,62.7,29.64,ESE,112,2.7,-999.0,98,-99.99,,,0.15,Acu-Link.com,2013-09-06 06:07:00,
2013-09-05 23:22:00,63.5,63.2,29.65,SE,135,2.2,-999.0,99,-99.99,,,0.18,Acu-Link.com,2013-09-06 06:22:00,
2013-09-05 23:38:00,63.3,63.0,29.63,East,90,1.7,-999.0,99,-99.99,,,0.19,Acu-Link.com,2013-09-06 06:38:00,
2013-09-05 23:53:00,63.1,62.8,29.63,SSE,157,1.1,-999.0,99,-99.99,,,0.21,Acu-Link.com,2013-09-06 06:53:00,